createdAt,value
2023-04-03T00:01:48.834Z,93758.34
2023-04-03T00:04:17.394Z,93754.84
2023-04-03T00:06:46.104Z,93759.34
2023-04-03T00:09:40.817Z,93762.91
2023-04-03T00:12:09.331Z,93750.50
2023-04-03T00:14:37.885Z,93756.03
2023-04-03T00:17:06.442Z,93750.72
2023-04-03T00:19:35.230Z,93761.06
2023-04-03T00:22:03.673Z,93748.13
2023-04-03T00:24:32.170Z,93754.66
2023-04-03T00:27:01.971Z,93749.94
2023-04-03T00:29:30.374Z,93759.28
2023-04-03T00:31:58.844Z,93760.78
2023-04-03T00:34:27.345Z,93753.63
2023-04-03T00:36:56.069Z,93751.50
2023-04-03T00:39:24.538Z,93762.31
2023-04-03T00:41:52.942Z,93761.13
2023-04-03T00:44:45.618Z,93760.47
2023-04-03T00:48:02.217Z,93760.09
2023-04-03T00:50:32.484Z,93752.38
2023-04-03T00:53:01.565Z,93762.59
2023-04-03T00:55:31.270Z,93761.59
2023-04-03T00:58:02.426Z,93769.72
2023-04-03T01:00:32.632Z,93758.13
2023-04-03T01:03:01.639Z,93760.16
2023-04-03T01:05:30.421Z,93767.84
2023-04-03T01:08:00.771Z,93769.97
2023-04-03T01:10:29.217Z,93769.72
2023-04-03T01:12:58.317Z,93767.56
2023-04-03T01:15:31.282Z,93760.66
2023-04-03T01:18:01.817Z,93756.56
2023-04-03T01:21:32.949Z,93759.56
2023-04-03T01:24:23.952Z,93759.06
2023-04-03T01:26:52.430Z,93766.44
2023-04-03T01:29:21.460Z,93766.91
2023-04-03T01:31:55.426Z,93776.34
2023-04-03T01:34:31.762Z,93769.94
2023-04-03T01:37:00.347Z,93777.38
2023-04-03T01:39:28.901Z,93765.91
2023-04-03T01:41:57.425Z,93775.50
2023-04-03T01:44:25.976Z,93770.06
2023-04-03T01:46:55.785Z,93776.28
2023-04-03T01:49:24.218Z,93771.56
2023-04-03T01:51:52.692Z,93764.13
2023-04-03T01:54:21.122Z,93763.00
2023-04-03T01:56:49.547Z,93767.97
2023-04-03T01:59:19.118Z,93757.34
2023-04-03T02:01:47.649Z,93759.75
2023-04-03T02:04:17.713Z,93757.59
2023-04-03T02:06:46.331Z,93752.88
2023-04-03T02:09:15.154Z,93755.69
2023-04-03T02:11:43.768Z,93752.41
2023-04-03T02:14:12.289Z,93760.44
2023-04-03T02:16:41.024Z,93753.97
2023-04-03T02:19:09.873Z,93746.28
2023-04-03T02:21:39.737Z,93747.84
2023-04-03T02:24:08.795Z,93739.88
2023-04-03T02:26:37.355Z,93740.44
2023-04-03T02:29:05.991Z,93728.44
2023-04-03T02:31:34.444Z,93741.84
2023-04-03T02:34:02.930Z,93741.56
2023-04-03T02:36:32.863Z,93741.00
2023-04-03T02:39:02.763Z,93731.91
2023-04-03T02:41:35.905Z,93727.16
2023-04-03T02:44:06.555Z,93735.09
2023-04-03T02:46:35.802Z,93736.22
2023-04-03T02:49:05.128Z,93729.81
2023-04-03T02:51:33.756Z,93731.47
2023-04-03T02:54:29.740Z,93728.00
2023-04-03T02:56:58.520Z,93726.75
2023-04-03T02:59:27.097Z,93733.53
2023-04-03T03:01:56.880Z,93720.19
2023-04-03T03:04:25.440Z,93729.56
2023-04-03T03:06:53.867Z,93724.00
2023-04-03T03:09:24.615Z,93716.97
2023-04-03T03:11:54.416Z,93720.97
2023-04-03T03:14:22.859Z,93722.06
2023-04-03T03:16:51.487Z,93721.88
2023-04-03T03:19:41.589Z,93722.00
2023-04-03T03:22:10.116Z,93725.09
2023-04-03T03:24:38.740Z,93714.25
2023-04-03T03:27:08.724Z,93714.38
2023-04-03T03:29:37.143Z,93718.00
2023-04-03T03:32:06.819Z,93721.31
2023-04-03T03:34:35.685Z,93723.31
2023-04-03T03:37:04.193Z,93729.56
2023-04-03T03:39:32.678Z,93726.19
2023-04-03T03:42:01.192Z,93727.44
2023-04-03T03:44:31.065Z,93733.53
2023-04-03T03:46:59.639Z,93732.75
2023-04-03T03:49:28.134Z,93744.50
2023-04-03T03:51:56.674Z,93733.47
2023-04-03T03:54:25.162Z,93737.84
2023-04-03T03:56:53.642Z,93737.53
2023-04-03T03:59:22.057Z,93734.94
2023-04-03T04:01:52.002Z,93742.59
2023-04-03T04:04:21.125Z,93741.00
2023-04-03T04:06:49.739Z,93735.47
2023-04-03T04:09:42.875Z,93736.28
2023-04-03T04:12:11.353Z,93734.13
2023-04-03T04:14:39.774Z,93735.81
2023-04-03T04:17:09.624Z,93742.25
2023-04-03T04:19:38.036Z,93736.47
2023-04-03T04:22:06.780Z,93742.94
2023-04-03T04:24:36.776Z,93751.50
2023-04-03T04:27:06.858Z,93761.31
2023-04-03T04:29:37.415Z,93767.88
2023-04-03T04:32:06.727Z,93766.50
2023-04-03T04:34:36.562Z,93765.16
2023-04-03T04:37:05.173Z,93762.56
2023-04-03T04:39:33.675Z,93765.28
2023-04-03T04:42:02.195Z,93764.47
2023-04-03T04:44:30.649Z,93783.53
2023-04-03T04:46:59.147Z,93765.81
2023-04-03T04:49:27.656Z,93769.00
2023-04-03T04:51:57.568Z,93770.13
2023-04-03T04:54:26.324Z,93789.44
2023-04-03T04:56:54.867Z,93788.41
2023-04-03T04:59:23.501Z,93792.34
2023-04-03T05:01:52.032Z,93797.53
2023-04-03T05:04:20.556Z,93790.78
2023-04-03T05:06:49.044Z,93792.91
2023-04-03T05:09:20.986Z,93798.56
2023-04-03T05:11:49.517Z,93788.19
2023-04-03T05:14:18.418Z,93797.66
2023-04-03T05:16:46.900Z,93793.38
2023-04-03T05:19:15.843Z,93801.94
2023-04-03T05:21:44.316Z,93805.88
2023-04-03T05:24:12.918Z,93808.47
2023-04-03T05:26:43.056Z,93808.66
2023-04-03T05:29:12.227Z,93808.25
2023-04-03T05:31:54.683Z,93805.16
2023-04-03T05:34:24.206Z,93809.56
2023-04-03T05:36:52.641Z,93800.81
2023-04-03T05:39:21.304Z,93797.63
2023-04-03T05:41:51.122Z,93803.25
2023-04-03T05:44:19.600Z,93804.31
2023-04-03T05:46:48.368Z,93802.56
2023-04-03T05:49:16.824Z,93803.59
2023-04-03T05:51:46.800Z,93804.03
2023-04-03T05:54:20.995Z,93804.06
2023-04-03T05:56:51.439Z,93793.41
2023-04-03T05:59:44.793Z,93798.06
2023-04-03T06:02:16.753Z,93798.53
2023-04-03T06:04:45.699Z,93790.13
2023-04-03T06:07:17.643Z,93788.28
2023-04-03T06:09:46.755Z,93778.56
2023-04-03T06:12:16.844Z,93773.75
2023-04-03T06:14:45.820Z,93771.53
2023-04-03T06:17:14.487Z,93770.13
2023-04-03T06:19:43.063Z,93764.03
2023-04-03T06:22:12.681Z,93763.91
2023-04-03T06:24:41.401Z,93761.66
2023-04-03T06:27:11.882Z,93756.03
2023-04-03T06:29:41.802Z,93769.19
2023-04-03T06:32:10.268Z,93778.41
2023-04-03T06:34:38.940Z,93775.59
2023-04-03T06:37:07.759Z,93782.94
2023-04-03T06:39:36.815Z,93773.88
2023-04-03T06:42:05.447Z,93776.81
2023-04-03T06:45:01.401Z,93770.16
2023-04-03T06:47:30.128Z,93778.03
2023-04-03T06:49:58.909Z,93776.03
2023-04-03T06:52:27.487Z,93777.16
2023-04-03T06:54:58.636Z,93768.63
2023-04-03T06:57:27.492Z,93762.44
2023-04-03T06:59:56.473Z,93767.97
2023-04-03T07:02:26.572Z,93764.06
2023-04-03T07:04:55.163Z,93772.72
2023-04-03T07:07:23.760Z,93781.66
2023-04-03T07:09:52.140Z,93784.81
2023-04-03T07:12:20.596Z,93787.69
2023-04-03T07:14:55.164Z,93791.13
2023-04-03T07:17:25.098Z,93782.47
2023-04-03T07:19:53.870Z,93778.03
2023-04-03T07:22:22.457Z,93771.75
2023-04-03T07:24:50.947Z,93767.56
2023-04-03T07:27:19.651Z,93765.66
2023-04-03T07:29:49.166Z,93772.50
2023-04-03T07:32:22.198Z,93765.22
2023-04-03T07:34:52.307Z,93767.59
2023-04-03T07:37:21.573Z,93762.91
2023-04-03T07:39:50.205Z,93754.28
2023-04-03T07:42:28.687Z,93749.31
2023-04-03T07:44:57.557Z,93750.06
2023-04-03T07:47:26.205Z,93746.63
2023-04-03T07:49:59.922Z,93740.78
2023-04-03T07:52:28.419Z,93732.38
2023-04-03T07:54:56.870Z,93725.22
2023-04-03T07:57:25.363Z,93720.19
2023-04-03T08:00:20.689Z,93723.78
2023-04-03T08:02:54.160Z,93711.88
2023-04-03T08:05:24.541Z,93704.50
2023-04-03T08:08:21.276Z,93707.28
2023-04-03T08:10:52.717Z,93708.25
2023-04-03T08:13:22.286Z,93712.72
2023-04-03T08:15:50.908Z,93715.84
2023-04-03T08:18:22.530Z,93714.34
2023-04-03T08:20:52.597Z,93712.53
2023-04-03T08:23:21.429Z,93707.84
2023-04-03T08:25:49.898Z,93705.22
2023-04-03T08:28:22.531Z,93704.59
2023-04-03T08:30:52.054Z,93706.38
2023-04-03T08:33:20.561Z,93705.06
2023-04-03T08:35:49.069Z,93703.84
2023-04-03T08:38:18.873Z,93702.63
2023-04-03T08:40:47.494Z,93701.41
2023-04-03T08:43:38.820Z,93697.56
2023-04-03T08:46:13.835Z,93699.72
2023-04-03T08:48:44.873Z,93695.78
2023-04-03T08:51:18.585Z,93697.72
2023-04-03T08:53:58.946Z,93693.81
2023-04-03T08:56:28.863Z,93688.84
2023-04-03T08:59:01.439Z,93690.09
2023-04-03T09:01:36.700Z,93679.56
2023-04-03T09:04:13.899Z,93675.34
2023-04-03T09:06:51.555Z,93674.25
2023-04-03T09:09:34.799Z,93664.19
2023-04-03T09:12:17.765Z,93668.38
2023-04-03T09:14:57.023Z,93670.53
2023-04-03T09:17:44.557Z,93671.31
2023-04-03T09:20:26.885Z,93665.56
2023-04-03T09:22:57.186Z,93662.25
2023-04-03T09:25:34.088Z,93659.97
2023-04-03T09:28:04.002Z,93654.88
2023-04-03T09:30:32.869Z,93646.13
2023-04-03T09:33:01.334Z,93641.63
2023-04-03T09:35:44.944Z,93646.75
2023-04-03T09:38:25.151Z,93646.53
2023-04-03T09:41:08.573Z,93638.00
2023-04-03T09:43:40.743Z,93636.38
2023-04-03T09:46:32.254Z,93642.72
2023-04-03T09:49:08.977Z,93626.88
2023-04-03T09:51:39.164Z,93619.78
2023-04-03T09:54:43.239Z,93617.94
2023-04-03T09:57:15.919Z,93626.88
2023-04-03T10:00:00.399Z,93611.00
2023-04-03T10:02:38.923Z,93611.00
2023-04-03T10:05:33.113Z,93612.50
2023-04-03T10:08:26.485Z,93601.25
2023-04-03T10:11:14.964Z,93603.16
2023-04-03T10:13:57.631Z,93603.22
2023-04-03T10:16:34.924Z,93604.22
2023-04-03T10:19:34.686Z,93599.25
2023-04-03T10:22:15.561Z,93600.97
2023-04-03T10:25:03.960Z,93603.84
2023-04-03T10:27:50.886Z,93597.28
2023-04-03T10:30:36.578Z,93588.59
2023-04-03T10:33:36.521Z,93582.94
2023-04-03T10:36:16.717Z,93585.53
2023-04-03T10:38:56.323Z,93588.09
2023-04-03T10:41:39.149Z,93575.78
2023-04-03T10:44:21.664Z,93563.84
2023-04-03T10:46:55.999Z,93567.47
2023-04-03T10:49:50.012Z,93569.63
2023-04-03T10:52:39.904Z,93562.78
2023-04-03T10:55:27.654Z,93556.00
2023-04-03T10:58:00.212Z,93560.19
2023-04-03T11:00:38.860Z,93552.81
2023-04-03T11:03:16.928Z,93556.59
2023-04-03T11:05:49.256Z,93550.53
2023-04-03T11:08:28.842Z,93560.16
2023-04-03T11:11:02.684Z,93552.31
2023-04-03T11:13:40.890Z,93551.81
2023-04-03T11:16:10.380Z,93556.00
2023-04-03T11:18:49.990Z,93564.50
2023-04-03T11:21:24.208Z,93555.53
2023-04-03T11:23:59.309Z,93557.28
2023-04-03T11:26:37.817Z,93555.94
2023-04-03T11:29:18.058Z,93557.03
2023-04-03T11:32:19.149Z,93545.66
2023-04-03T11:34:52.980Z,93551.84
2023-04-03T11:37:36.634Z,93560.41
2023-04-03T11:40:16.467Z,93579.50
2023-04-03T11:42:50.013Z,93565.81
2023-04-03T11:45:39.206Z,93558.31
2023-04-03T11:48:51.680Z,93577.34
2023-04-03T11:51:44.584Z,93577.91
2023-04-03T11:54:50.179Z,93581.69
2023-04-03T11:58:13.532Z,93583.28
2023-04-03T12:01:08.741Z,93585.94
2023-04-03T12:04:09.215Z,93583.31
2023-04-03T12:07:22.724Z,93581.56
2023-04-03T12:10:01.586Z,93587.91
2023-04-03T12:12:42.678Z,93586.09
2023-04-03T12:15:54.917Z,93573.03
2023-04-03T12:19:01.157Z,93568.31
2023-04-03T12:22:11.599Z,93561.00
2023-04-03T12:24:43.470Z,93567.31
2023-04-03T12:27:42.937Z,93568.13
2023-04-03T12:30:27.572Z,93556.84
2023-04-03T12:33:31.445Z,93546.38
2023-04-03T12:36:11.217Z,93531.47
2023-04-03T12:39:07.166Z,93537.50
2023-04-03T12:41:47.637Z,93535.72
2023-04-03T12:44:47.927Z,93543.34
2023-04-03T12:47:30.987Z,93532.88
2023-04-03T12:50:01.635Z,93531.06
2023-04-03T12:52:40.226Z,93544.69
2023-04-03T12:55:22.945Z,93528.19
2023-04-03T12:57:51.782Z,93517.22
2023-04-03T13:00:33.767Z,93518.06
2023-04-03T13:03:05.120Z,93524.63
2023-04-03T13:05:37.231Z,93532.00
2023-04-03T13:08:10.612Z,93535.41
2023-04-03T13:10:56.990Z,93535.13
2023-04-03T13:13:27.415Z,93538.28
2023-04-03T13:15:56.760Z,93537.75
2023-04-03T13:18:33.276Z,93526.50
2023-04-03T13:21:08.143Z,93522.06
2023-04-03T13:23:42.678Z,93528.34
2023-04-03T13:26:13.803Z,93527.78
2023-04-03T13:28:43.025Z,93524.41
2023-04-03T13:31:24.788Z,93515.78
2023-04-03T13:34:00.750Z,93520.50
2023-04-03T13:36:37.008Z,93531.72
2023-04-03T13:39:22.472Z,93518.63
2023-04-03T13:41:54.550Z,93521.25
2023-04-03T13:44:44.295Z,93519.69
2023-04-03T13:47:23.603Z,93523.31
2023-04-03T13:50:07.071Z,93517.31
2023-04-03T13:52:44.006Z,93516.78
2023-04-03T13:55:26.575Z,93519.41
2023-04-03T13:58:01.432Z,93528.81
2023-04-03T14:00:39.655Z,93509.75
2023-04-03T14:03:22.620Z,93493.81
2023-04-03T14:05:53.090Z,93507.63
2023-04-03T14:08:29.319Z,93511.56
2023-04-03T14:11:04.772Z,93500.84
2023-04-03T14:13:35.057Z,93496.94
2023-04-03T14:16:15.132Z,93503.47
2023-04-03T14:18:45.420Z,93493.53
2023-04-03T14:21:15.961Z,93492.75
2023-04-03T14:23:44.720Z,93493.25
2023-04-03T14:26:17.436Z,93491.69
2023-04-03T14:28:50.000Z,93482.03
2023-04-03T14:31:20.092Z,93484.41
2023-04-03T14:33:49.669Z,93493.53
2023-04-03T14:36:22.673Z,93481.22
2023-04-03T14:38:52.696Z,65556.66
2023-04-03T14:41:25.513Z,65556.66
2023-04-03T14:43:55.963Z,65556.66
2023-04-03T14:46:43.061Z,65556.66
2023-04-03T14:49:22.010Z,65556.66
2023-04-03T14:51:51.501Z,65556.66
2023-04-03T14:54:26.644Z,65556.66
2023-04-03T14:56:57.489Z,65556.66
2023-04-03T14:59:28.763Z,65556.66
2023-04-03T15:01:57.478Z,65556.66
2023-04-03T15:04:26.615Z,65556.66
2023-04-03T15:06:55.436Z,65556.66
2023-04-03T15:09:26.803Z,65556.66
2023-04-03T15:11:57.012Z,65556.66
2023-04-03T15:14:36.448Z,65556.66
2023-04-03T15:17:19.774Z,65556.66
2023-04-03T15:19:48.727Z,65556.66
2023-04-03T15:22:19.696Z,65556.66
2023-04-03T15:24:48.495Z,65556.66
2023-04-03T15:27:17.799Z,65556.66
2023-04-03T15:29:48.126Z,65556.66
2023-04-03T15:32:16.930Z,65556.66
2023-04-03T15:34:45.571Z,65556.66
2023-04-03T15:37:14.177Z,65556.66
2023-04-03T15:39:42.821Z,65556.66
2023-04-03T15:42:13.354Z,65556.66
2023-04-03T15:44:41.982Z,65556.66
2023-04-03T15:47:12.274Z,65556.66
2023-04-03T15:50:30.932Z,65556.66
2023-04-03T15:53:00.135Z,65556.66
2023-04-03T15:55:30.496Z,65556.66
2023-04-03T15:58:00.506Z,65556.66
2023-04-03T16:00:30.321Z,65556.66
2023-04-03T16:03:06.386Z,65556.66
2023-04-03T16:05:37.549Z,65556.66
2023-04-03T16:08:08.703Z,65556.66
2023-04-03T16:10:40.607Z,65556.66
2023-04-03T16:13:09.565Z,65556.66
2023-04-03T16:15:46.290Z,65556.66
2023-04-03T16:18:16.512Z,65556.66
2023-04-03T16:20:45.778Z,65556.66
2023-04-03T16:23:14.686Z,65556.66
2023-04-03T16:25:46.856Z,65556.66
2023-04-03T16:28:16.666Z,65556.66
2023-04-03T16:30:46.679Z,65556.66
2023-04-03T16:33:17.092Z,65556.66
2023-04-03T16:35:45.826Z,65556.66
2023-04-03T16:38:14.564Z,65556.66
2023-04-03T16:40:43.241Z,65556.66
2023-04-03T16:43:11.866Z,65556.66
2023-04-03T16:45:40.795Z,65556.66
2023-04-03T16:48:10.020Z,65556.66
2023-04-03T16:50:40.055Z,65556.66
2023-04-03T16:53:10.573Z,65556.66
2023-04-03T16:55:40.621Z,65556.66
2023-04-03T16:58:10.457Z,65556.66
2023-04-03T17:00:39.301Z,65556.66
2023-04-03T17:03:08.167Z,65556.66
2023-04-03T17:05:36.934Z,65556.66
2023-04-03T17:08:32.041Z,65556.66
2023-04-03T17:11:00.854Z,65556.66
2023-04-03T17:13:33.095Z,65556.66
2023-04-03T17:16:03.918Z,65556.66
2023-04-03T17:18:32.951Z,65556.66
2023-04-03T17:21:03.633Z,65556.66
2023-04-03T17:24:02.730Z,65556.66
2023-04-03T17:26:31.521Z,65556.66
2023-04-03T17:29:00.161Z,65556.66
2023-04-03T17:31:41.530Z,65556.66
2023-04-03T17:34:12.148Z,65556.66
2023-04-03T17:36:41.685Z,65556.66
2023-04-03T17:39:11.827Z,65556.66
2023-04-03T17:41:40.416Z,65556.66
2023-04-03T17:44:09.032Z,65556.66
2023-04-03T17:46:37.590Z,65556.66
2023-04-03T17:49:06.372Z,65556.66
2023-04-03T17:51:37.596Z,65556.66
2023-04-03T17:54:06.380Z,65556.66
2023-04-03T17:56:36.391Z,65556.66
2023-04-03T17:59:05.029Z,65556.66
2023-04-03T18:01:36.350Z,65556.66
2023-04-03T18:04:07.007Z,65556.66
2023-04-03T18:06:41.522Z,65556.66
2023-04-03T18:09:35.755Z,65556.66
2023-04-03T18:12:09.757Z,65556.66
2023-04-03T18:14:41.178Z,65556.66
2023-04-03T18:17:09.717Z,65556.66
2023-04-03T18:19:38.388Z,65556.66
2023-04-03T18:22:13.534Z,65556.66
2023-04-03T18:24:43.942Z,65556.66
2023-04-03T18:27:18.135Z,65556.66
2023-04-03T18:29:51.572Z,65556.66
2023-04-03T18:32:22.411Z,65556.66
2023-04-03T18:34:51.528Z,65556.66
2023-04-03T18:37:21.052Z,65556.66
2023-04-03T18:39:49.596Z,65556.66
2023-04-03T18:42:24.375Z,65556.66
2023-04-03T18:44:59.594Z,65556.66
2023-04-03T18:47:30.329Z,65556.66
2023-04-03T18:49:59.985Z,65556.66
2023-04-03T18:52:28.640Z,65556.66
2023-04-03T18:54:57.877Z,65556.66
2023-04-03T18:57:27.874Z,65556.66
2023-04-03T18:59:56.490Z,65556.66
2023-04-03T19:02:27.257Z,65556.66
2023-04-03T19:04:55.945Z,65556.66
2023-04-03T19:07:25.022Z,65556.66
2023-04-03T19:09:53.640Z,65556.66
2023-04-03T19:12:22.160Z,65556.66
2023-04-03T19:14:52.040Z,65556.66
2023-04-03T19:17:20.595Z,65556.66
2023-04-03T19:20:05.000Z,65556.66
2023-04-03T19:22:33.495Z,65556.66
2023-04-03T19:25:02.168Z,65556.66
2023-04-03T19:27:31.010Z,65556.66
2023-04-03T19:30:01.329Z,65556.66
2023-04-03T19:32:30.056Z,65556.66
2023-04-03T19:34:59.656Z,65556.66
2023-04-03T19:37:29.075Z,65556.66
2023-04-03T19:39:57.579Z,65556.66
2023-04-03T19:42:29.155Z,65556.66
2023-04-03T19:45:00.204Z,65556.66
2023-04-03T19:47:29.481Z,65556.66
2023-04-03T19:49:58.146Z,65556.66
2023-04-03T19:52:26.621Z,65556.66
2023-04-03T19:54:55.139Z,65556.66
2023-04-03T19:57:23.614Z,65556.66
2023-04-03T20:00:09.608Z,65556.66
2023-04-03T20:02:38.136Z,65556.66
2023-04-03T20:05:08.110Z,65556.66
2023-04-03T20:07:36.572Z,65556.66
2023-04-03T20:10:06.572Z,65556.66
2023-04-03T20:12:38.119Z,65556.66
2023-04-03T20:15:40.273Z,65556.66
2023-04-03T20:18:10.015Z,65556.66
2023-04-03T20:21:06.757Z,65556.66
2023-04-03T20:23:37.330Z,65556.66
2023-04-03T20:26:11.150Z,65556.66
2023-04-03T20:28:43.896Z,65556.66
2023-04-03T20:31:14.219Z,65556.66
2023-04-03T20:33:42.853Z,65556.66
2023-04-03T20:36:11.477Z,65556.66
2023-04-03T20:38:40.077Z,65556.66
2023-04-03T20:41:09.319Z,65556.66
2023-04-03T20:43:38.442Z,65556.66
2023-04-03T20:46:06.933Z,65556.66
2023-04-03T20:48:36.967Z,65556.66
2023-04-03T20:51:11.353Z,65556.66
2023-04-03T20:53:46.124Z,65556.66
2023-04-03T20:56:15.578Z,65556.66
2023-04-03T20:58:46.324Z,65556.66
2023-04-03T21:01:18.402Z,65556.66
2023-04-03T21:03:49.123Z,65556.66
2023-04-03T21:07:13.456Z,65556.66
2023-04-03T21:10:38.799Z,65556.66
2023-04-03T21:14:03.897Z,65556.66
2023-04-03T21:16:32.605Z,65556.66
2023-04-03T21:19:13.638Z,65556.66
2023-04-03T21:21:43.407Z,65556.66
2023-04-03T21:24:12.466Z,65556.66
2023-04-03T21:26:42.142Z,65556.66
2023-04-03T21:29:11.360Z,65556.66
2023-04-03T21:31:52.714Z,65556.66
2023-04-03T21:34:25.887Z,65556.66
2023-04-03T21:36:54.755Z,65556.66
2023-04-03T21:39:24.417Z,65556.66
2023-04-03T21:41:53.255Z,65556.66
2023-04-03T21:44:22.294Z,65556.66
2023-04-03T21:46:54.383Z,65556.66
2023-04-03T21:49:25.920Z,65556.66
2023-04-03T21:51:54.431Z,65556.66
2023-04-03T21:54:22.997Z,65556.66
2023-04-03T21:56:52.281Z,65556.66
2023-04-03T21:59:20.906Z,65556.66
2023-04-03T22:01:49.616Z,65556.66
2023-04-03T22:04:18.281Z,65556.66
2023-04-03T22:06:48.159Z,65556.66
2023-04-03T22:09:16.695Z,65556.66
2023-04-03T22:11:46.035Z,65556.66
2023-04-03T22:14:14.714Z,65556.66
2023-04-03T22:16:46.715Z,65556.66
2023-04-03T22:19:15.624Z,65556.66
2023-04-03T22:21:44.019Z,65556.66
2023-04-03T22:24:14.995Z,65556.66
2023-04-03T22:26:44.693Z,65556.66
2023-04-03T22:29:13.965Z,65556.66
2023-04-03T22:31:42.806Z,65556.66
2023-04-03T22:34:12.554Z,65556.66
2023-04-03T22:36:43.163Z,65556.66
2023-04-03T22:39:15.260Z,65556.66
2023-04-03T22:41:45.328Z,65556.66
2023-04-03T22:44:14.209Z,65556.66
2023-04-03T22:46:42.763Z,65556.66
2023-04-03T22:49:11.258Z,65556.66
2023-04-03T22:51:39.844Z,65556.66
2023-04-03T22:54:26.762Z,65556.66
2023-04-03T22:56:55.580Z,65556.66
2023-04-03T22:59:24.073Z,65556.66
2023-04-03T23:01:52.607Z,65556.66
2023-04-03T23:04:21.308Z,65556.66
2023-04-03T23:06:49.828Z,65556.66
2023-04-03T23:09:18.232Z,65556.66
2023-04-03T23:11:53.948Z,65556.66
2023-04-03T23:14:22.751Z,65556.66
2023-04-03T23:16:51.329Z,65556.66
2023-04-03T23:19:19.831Z,65556.66
2023-04-03T23:22:00.486Z,65556.66
2023-04-03T23:24:54.786Z,65556.66
2023-04-03T23:27:24.774Z,65556.66
2023-04-03T23:29:53.182Z,65556.66
2023-04-03T23:32:21.598Z,65556.66
2023-04-03T23:34:50.135Z,65556.66
2023-04-03T23:37:18.543Z,65556.66
2023-04-03T23:39:46.986Z,65556.66
2023-04-03T23:42:15.478Z,65556.66
2023-04-03T23:44:45.290Z,65556.66
2023-04-03T23:47:13.689Z,65556.66
2023-04-03T23:49:42.220Z,65556.66
2023-04-03T23:52:10.652Z,65556.66
2023-04-03T23:54:39.426Z,65556.66
2023-04-03T23:57:07.904Z,65556.66
2023-04-03T23:59:36.390Z,65556.66
